sensor_id;sensor_type;location;lat;lon;timestamp;P1;durP1;ratioP1;P2;durP2;ratioP2
38037;SDS011;23843;51.320;12.340;2023-06-14T00:00:24;2.50;;;1.57;;
38037;SDS011;23843;51.320;12.340;2023-06-14T00:02:51;2.97;;;1.87;;
38037;SDS011;23843;51.320;12.340;2023-06-14T00:05:17;1.80;;;1.20;;
38037;SDS011;23843;51.320;12.340;2023-06-14T00:07:42;1.20;;;1.10;;
38037;SDS011;23843;51.320;12.340;2023-06-14T00:10:08;2.13;;;1.30;;
38037;SDS011;23843;51.320;12.340;2023-06-14T00:12:34;1.43;;;1.20;;
38037;SDS011;23843;51.320;12.340;2023-06-14T00:15:00;2.63;;;1.30;;
38037;SDS011;23843;51.320;12.340;2023-06-14T00:17:25;1.73;;;1.43;;
38037;SDS011;23843;51.320;12.340;2023-06-14T00:19:52;1.60;;;1.30;;
38037;SDS011;23843;51.320;12.340;2023-06-14T00:22:17;2.23;;;1.50;;
38037;SDS011;23843;51.320;12.340;2023-06-14T00:24:43;1.80;;;1.60;;
38037;SDS011;23843;51.320;12.340;2023-06-14T00:27:08;1.80;;;1.60;;
38037;SDS011;23843;51.320;12.340;2023-06-14T00:29:34;1.77;;;1.50;;
38037;SDS011;23843;51.320;12.340;2023-06-14T00:31:59;2.57;;;1.40;;
38037;SDS011;23843;51.320;12.340;2023-06-14T00:34:25;2.37;;;1.63;;
38037;SDS011;23843;51.320;12.340;2023-06-14T00:36:51;2.23;;;1.60;;
38037;SDS011;23843;51.320;12.340;2023-06-14T00:39:17;2.47;;;1.60;;
38037;SDS011;23843;51.320;12.340;2023-06-14T00:41:42;2.00;;;1.50;;
38037;SDS011;23843;51.320;12.340;2023-06-14T00:44:08;3.30;;;1.70;;
38037;SDS011;23843;51.320;12.340;2023-06-14T00:46:33;2.67;;;1.60;;
38037;SDS011;23843;51.320;12.340;2023-06-14T00:48:59;1.80;;;1.70;;
38037;SDS011;23843;51.320;12.340;2023-06-14T00:51:26;1.73;;;1.50;;
38037;SDS011;23843;51.320;12.340;2023-06-14T00:53:53;2.13;;;1.27;;
38037;SDS011;23843;51.320;12.340;2023-06-14T00:56:18;2.27;;;1.50;;
38037;SDS011;23843;51.320;12.340;2023-06-14T00:58:44;1.30;;;1.20;;
38037;SDS011;23843;51.320;12.340;2023-06-14T01:01:10;1.47;;;1.37;;
38037;SDS011;23843;51.320;12.340;2023-06-14T01:03:35;2.27;;;1.30;;
38037;SDS011;23843;51.320;12.340;2023-06-14T01:06:03;1.50;;;1.40;;
38037;SDS011;23843;51.320;12.340;2023-06-14T01:08:40;3.00;;;1.90;;
38037;SDS011;23843;51.320;12.340;2023-06-14T01:11:18;8.27;;;2.10;;
38037;SDS011;23843;51.320;12.340;2023-06-14T01:13:51;2.17;;;1.60;;
38037;SDS011;23843;51.320;12.340;2023-06-14T01:16:18;1.87;;;1.47;;
38037;SDS011;23843;51.320;12.340;2023-06-14T01:18:45;1.80;;;1.50;;
38037;SDS011;23843;51.320;12.340;2023-06-14T01:21:19;1.53;;;1.20;;
38037;SDS011;23843;51.320;12.340;2023-06-14T01:23:47;1.60;;;1.40;;
38037;SDS011;23843;51.320;12.340;2023-06-14T01:26:12;2.23;;;1.47;;
38037;SDS011;23843;51.320;12.340;2023-06-14T01:28:38;3.00;;;1.40;;
38037;SDS011;23843;51.320;12.340;2023-06-14T01:31:03;2.77;;;1.50;;
38037;SDS011;23843;51.320;12.340;2023-06-14T01:33:29;1.30;;;1.20;;
38037;SDS011;23843;51.320;12.340;2023-06-14T01:35:58;1.67;;;1.10;;
38037;SDS011;23843;51.320;12.340;2023-06-14T01:38:25;1.40;;;1.20;;
38037;SDS011;23843;51.320;12.340;2023-06-14T01:40:53;2.23;;;1.67;;
38037;SDS011;23843;51.320;12.340;2023-06-14T01:43:21;1.57;;;1.30;;
38037;SDS011;23843;51.320;12.340;2023-06-14T01:45:48;1.00;;;0.90;;
38037;SDS011;23843;51.320;12.340;2023-06-14T01:48:17;1.63;;;1.30;;
38037;SDS011;23843;51.320;12.340;2023-06-14T01:50:44;2.53;;;2.00;;
38037;SDS011;23843;51.320;12.340;2023-06-14T01:53:09;1.60;;;1.30;;
38037;SDS011;23843;51.320;12.340;2023-06-14T01:55:35;1.40;;;1.30;;
38037;SDS011;23843;51.320;12.340;2023-06-14T01:58:03;1.40;;;1.20;;
38037;SDS011;23843;51.320;12.340;2023-06-14T02:00:28;1.70;;;1.30;;
38037;SDS011;23843;51.320;12.340;2023-06-14T02:02:54;1.13;;;1.03;;
38037;SDS011;23843;51.320;12.340;2023-06-14T02:05:20;1.43;;;1.20;;
38037;SDS011;23843;51.320;12.340;2023-06-14T02:07:45;0.97;;;0.87;;
38037;SDS011;23843;51.320;12.340;2023-06-14T02:10:11;1.10;;;1.00;;
38037;SDS011;23843;51.320;12.340;2023-06-14T02:12:36;0.83;;;0.83;;
38037;SDS011;23843;51.320;12.340;2023-06-14T02:15:04;1.57;;;1.10;;
38037;SDS011;23843;51.320;12.340;2023-06-14T02:17:29;2.63;;;1.30;;
38037;SDS011;23843;51.320;12.340;2023-06-14T02:20:00;1.40;;;1.20;;
38037;SDS011;23843;51.320;12.340;2023-06-14T02:22:29;1.53;;;0.97;;
38037;SDS011;23843;51.320;12.340;2023-06-14T02:24:54;0.90;;;0.90;;
38037;SDS011;23843;51.320;12.340;2023-06-14T02:27:20;0.67;;;0.67;;
38037;SDS011;23843;51.320;12.340;2023-06-14T02:29:45;1.00;;;0.80;;
38037;SDS011;23843;51.320;12.340;2023-06-14T02:32:12;0.70;;;0.70;;
38037;SDS011;23843;51.320;12.340;2023-06-14T02:34:38;1.60;;;1.10;;
38037;SDS011;23843;51.320;12.340;2023-06-14T02:37:03;0.70;;;0.70;;
38037;SDS011;23843;51.320;12.340;2023-06-14T02:39:29;2.47;;;1.10;;
38037;SDS011;23843;51.320;12.340;2023-06-14T02:41:55;0.93;;;0.83;;
38037;SDS011;23843;51.320;12.340;2023-06-14T02:44:23;5.20;;;1.47;;
38037;SDS011;23843;51.320;12.340;2023-06-14T02:46:50;2.33;;;1.50;;
38037;SDS011;23843;51.320;12.340;2023-06-14T02:49:16;1.63;;;1.50;;
38037;SDS011;23843;51.320;12.340;2023-06-14T02:51:42;1.70;;;1.60;;
38037;SDS011;23843;51.320;12.340;2023-06-14T02:54:07;2.83;;;1.73;;
38037;SDS011;23843;51.320;12.340;2023-06-14T02:56:33;1.50;;;1.30;;
38037;SDS011;23843;51.320;12.340;2023-06-14T02:58:58;2.37;;;1.60;;
38037;SDS011;23843;51.320;12.340;2023-06-14T03:01:24;1.40;;;1.30;;
38037;SDS011;23843;51.320;12.340;2023-06-14T03:03:50;1.30;;;1.20;;
38037;SDS011;23843;51.320;12.340;2023-06-14T03:06:17;1.40;;;1.20;;
38037;SDS011;23843;51.320;12.340;2023-06-14T03:08:42;1.77;;;1.17;;
38037;SDS011;23843;51.320;12.340;2023-06-14T03:11:08;1.60;;;1.30;;
38037;SDS011;23843;51.320;12.340;2023-06-14T03:13:33;1.70;;;1.50;;
38037;SDS011;23843;51.320;12.340;2023-06-14T03:15:59;1.63;;;1.40;;
38037;SDS011;23843;51.320;12.340;2023-06-14T03:18:24;2.00;;;1.43;;
38037;SDS011;23843;51.320;12.340;2023-06-14T03:20:49;2.37;;;1.40;;
38037;SDS011;23843;51.320;12.340;2023-06-14T03:23:16;2.60;;;1.47;;
38037;SDS011;23843;51.320;12.340;2023-06-14T03:25:42;1.27;;;1.07;;
38037;SDS011;23843;51.320;12.340;2023-06-14T03:28:07;1.30;;;1.03;;
38037;SDS011;23843;51.320;12.340;2023-06-14T03:30:33;1.30;;;1.20;;
38037;SDS011;23843;51.320;12.340;2023-06-14T03:32:58;0.90;;;0.90;;
38037;SDS011;23843;51.320;12.340;2023-06-14T03:35:24;1.77;;;1.10;;
38037;SDS011;23843;51.320;12.340;2023-06-14T03:37:49;1.10;;;1.00;;
38037;SDS011;23843;51.320;12.340;2023-06-14T03:40:18;2.90;;;1.47;;
38037;SDS011;23843;51.320;12.340;2023-06-14T03:42:44;1.83;;;1.13;;
38037;SDS011;23843;51.320;12.340;2023-06-14T03:45:09;1.30;;;1.10;;
38037;SDS011;23843;51.320;12.340;2023-06-14T03:47:35;1.33;;;1.10;;
38037;SDS011;23843;51.320;12.340;2023-06-14T03:50:01;2.70;;;1.27;;
38037;SDS011;23843;51.320;12.340;2023-06-14T03:52:26;3.97;;;1.90;;
38037;SDS011;23843;51.320;12.340;2023-06-14T03:54:52;1.17;;;1.07;;
38037;SDS011;23843;51.320;12.340;2023-06-14T03:57:19;5.73;;;1.70;;
38037;SDS011;23843;51.320;12.340;2023-06-14T03:59:44;2.60;;;1.90;;
38037;SDS011;23843;51.320;12.340;2023-06-14T04:02:10;1.50;;;1.40;;
38037;SDS011;23843;51.320;12.340;2023-06-14T04:04:35;1.90;;;1.33;;
38037;SDS011;23843;51.320;12.340;2023-06-14T04:07:01;2.20;;;1.50;;
38037;SDS011;23843;51.320;12.340;2023-06-14T04:09:26;1.77;;;1.67;;
38037;SDS011;23843;51.320;12.340;2023-06-14T04:11:52;1.67;;;1.30;;
38037;SDS011;23843;51.320;12.340;2023-06-14T04:14:20;2.10;;;1.60;;
38037;SDS011;23843;51.320;12.340;2023-06-14T04:16:46;3.20;;;2.17;;
38037;SDS011;23843;51.320;12.340;2023-06-14T04:19:11;4.17;;;2.10;;
38037;SDS011;23843;51.320;12.340;2023-06-14T04:21:37;2.10;;;1.80;;
38037;SDS011;23843;51.320;12.340;2023-06-14T04:24:03;2.87;;;2.23;;
38037;SDS011;23843;51.320;12.340;2023-06-14T04:26:29;3.30;;;2.03;;
38037;SDS011;23843;51.320;12.340;2023-06-14T04:28:54;2.90;;;2.13;;
38037;SDS011;23843;51.320;12.340;2023-06-14T04:31:21;2.77;;;2.20;;
38037;SDS011;23843;51.320;12.340;2023-06-14T04:33:47;2.40;;;1.90;;
38037;SDS011;23843;51.320;12.340;2023-06-14T04:36:12;3.27;;;2.10;;
38037;SDS011;23843;51.320;12.340;2023-06-14T04:38:38;2.50;;;2.30;;
38037;SDS011;23843;51.320;12.340;2023-06-14T04:41:03;3.15;;;2.22;;
38037;SDS011;23843;51.320;12.340;2023-06-14T04:43:29;2.50;;;2.30;;
38037;SDS011;23843;51.320;12.340;2023-06-14T04:45:54;2.78;;;1.88;;
38037;SDS011;23843;51.320;12.340;2023-06-14T04:48:22;2.78;;;2.17;;
38037;SDS011;23843;51.320;12.340;2023-06-14T04:50:47;2.38;;;2.10;;
38037;SDS011;23843;51.320;12.340;2023-06-14T04:53:13;2.30;;;1.80;;
38037;SDS011;23843;51.320;12.340;2023-06-14T04:55:38;1.80;;;1.70;;
38037;SDS011;23843;51.320;12.340;2023-06-14T04:58:04;1.95;;;1.80;;
38037;SDS011;23843;51.320;12.340;2023-06-14T05:00:29;1.60;;;1.50;;
38037;SDS011;23843;51.320;12.340;2023-06-14T05:02:55;2.13;;;1.83;;
38037;SDS011;23843;51.320;12.340;2023-06-14T05:05:21;2.85;;;1.98;;
38037;SDS011;23843;51.320;12.340;2023-06-14T05:07:47;2.30;;;1.73;;
38037;SDS011;23843;51.320;12.340;2023-06-14T05:10:13;2.53;;;2.22;;
38037;SDS011;23843;51.320;12.340;2023-06-14T05:12:38;2.53;;;1.98;;
38037;SDS011;23843;51.320;12.340;2023-06-14T05:15:04;1.70;;;1.60;;
38037;SDS011;23843;51.320;12.340;2023-06-14T05:17:30;2.08;;;1.33;;
38037;SDS011;23843;51.320;12.340;2023-06-14T05:19:55;2.30;;;1.67;;
38037;SDS011;23843;51.320;12.340;2023-06-14T05:22:22;1.40;;;1.30;;
38037;SDS011;23843;51.320;12.340;2023-06-14T05:24:48;1.70;;;1.60;;
38037;SDS011;23843;51.320;12.340;2023-06-14T05:27:13;2.13;;;1.65;;
38037;SDS011;23843;51.320;12.340;2023-06-14T05:29:39;2.28;;;2.08;;
38037;SDS011;23843;51.320;12.340;2023-06-14T05:32:04;2.20;;;2.00;;
38037;SDS011;23843;51.320;12.340;2023-06-14T05:34:30;2.55;;;1.77;;
38037;SDS011;23843;51.320;12.340;2023-06-14T05:36:55;2.30;;;2.10;;
38037;SDS011;23843;51.320;12.340;2023-06-14T05:39:22;3.20;;;2.90;;
38037;SDS011;23843;51.320;12.340;2023-06-14T05:41:48;2.55;;;2.00;;
38037;SDS011;23843;51.320;12.340;2023-06-14T05:44:13;2.40;;;1.88;;
38037;SDS011;23843;51.320;12.340;2023-06-14T05:46:39;2.45;;;2.25;;
38037;SDS011;23843;51.320;12.340;2023-06-14T05:49:04;3.00;;;2.70;;
38037;SDS011;23843;51.320;12.340;2023-06-14T05:51:30;2.63;;;2.42;;
38037;SDS011;23843;51.320;12.340;2023-06-14T05:53:55;3.05;;;2.33;;
38037;SDS011;23843;51.320;12.340;2023-06-14T05:56:22;2.33;;;2.13;;
38037;SDS011;23843;51.320;12.340;2023-06-14T05:58:47;2.80;;;2.60;;
38037;SDS011;23843;51.320;12.340;2023-06-14T06:01:13;2.70;;;2.50;;
38037;SDS011;23843;51.320;12.340;2023-06-14T06:03:39;2.35;;;2.15;;
38037;SDS011;23843;51.320;12.340;2023-06-14T06:06:04;2.83;;;1.60;;
38037;SDS011;23843;51.320;12.340;2023-06-14T06:08:30;3.03;;;2.22;;
38037;SDS011;23843;51.320;12.340;2023-06-14T06:10:55;2.70;;;2.50;;
38037;SDS011;23843;51.320;12.340;2023-06-14T06:13:22;2.65;;;2.35;;
38037;SDS011;23843;51.320;12.340;2023-06-14T06:15:48;2.92;;;2.50;;
38037;SDS011;23843;51.320;12.340;2023-06-14T06:18:13;2.60;;;2.40;;
38037;SDS011;23843;51.320;12.340;2023-06-14T06:20:39;2.42;;;2.22;;
38037;SDS011;23843;51.320;12.340;2023-06-14T06:23:04;2.85;;;2.60;;
38037;SDS011;23843;51.320;12.340;2023-06-14T06:25:30;2.13;;;1.98;;
38037;SDS011;23843;51.320;12.340;2023-06-14T06:27:55;2.10;;;1.90;;
38037;SDS011;23843;51.320;12.340;2023-06-14T06:30:22;1.73;;;1.55;;
38037;SDS011;23843;51.320;12.340;2023-06-14T06:32:48;2.47;;;2.28;;
38037;SDS011;23843;51.320;12.340;2023-06-14T06:35:13;3.00;;;2.75;;
38037;SDS011;23843;51.320;12.340;2023-06-14T06:37:39;2.30;;;2.10;;
38037;SDS011;23843;51.320;12.340;2023-06-14T06:40:06;2.80;;;2.50;;
38037;SDS011;23843;51.320;12.340;2023-06-14T06:42:32;3.25;;;2.95;;
38037;SDS011;23843;51.320;12.340;2023-06-14T06:44:58;2.47;;;2.28;;
38037;SDS011;23843;51.320;12.340;2023-06-14T06:47:25;2.50;;;2.30;;
38037;SDS011;23843;51.320;12.340;2023-06-14T06:49:50;2.60;;;2.40;;
38037;SDS011;23843;51.320;12.340;2023-06-14T06:52:16;3.40;;;2.70;;
38037;SDS011;23843;51.320;12.340;2023-06-14T06:54:41;2.38;;;2.17;;
38037;SDS011;23843;51.320;12.340;2023-06-14T06:57:07;2.53;;;2.30;;
38037;SDS011;23843;51.320;12.340;2023-06-14T06:59:33;2.05;;;1.80;;
38037;SDS011;23843;51.320;12.340;2023-06-14T07:01:58;2.80;;;2.38;;
38037;SDS011;23843;51.320;12.340;2023-06-14T07:04:25;2.40;;;2.20;;
38037;SDS011;23843;51.320;12.340;2023-06-14T07:06:51;2.30;;;2.10;;
38037;SDS011;23843;51.320;12.340;2023-06-14T07:09:16;1.95;;;1.77;;
38037;SDS011;23843;51.320;12.340;2023-06-14T07:11:42;1.70;;;1.60;;
38037;SDS011;23843;51.320;12.340;2023-06-14T07:14:09;1.85;;;1.75;;
38037;SDS011;23843;51.320;12.340;2023-06-14T07:16:34;2.00;;;1.90;;
38037;SDS011;23843;51.320;12.340;2023-06-14T07:19:01;1.70;;;1.60;;
38037;SDS011;23843;51.320;12.340;2023-06-14T07:21:28;2.88;;;1.88;;
38037;SDS011;23843;51.320;12.340;2023-06-14T07:23:53;2.38;;;2.17;;
38037;SDS011;23843;51.320;12.340;2023-06-14T07:26:19;2.05;;;1.90;;
38037;SDS011;23843;51.320;12.340;2023-06-14T07:28:45;4.65;;;2.55;;
38037;SDS011;23843;51.320;12.340;2023-06-14T07:31:11;3.35;;;2.67;;
38037;SDS011;23843;51.320;12.340;2023-06-14T07:33:36;1.90;;;1.80;;
38037;SDS011;23843;51.320;12.340;2023-06-14T07:36:02;2.45;;;2.25;;
38037;SDS011;23843;51.320;12.340;2023-06-14T07:38:29;2.97;;;2.03;;
38037;SDS011;23843;51.320;12.340;2023-06-14T07:40:54;2.83;;;2.63;;
38037;SDS011;23843;51.320;12.340;2023-06-14T07:43:20;2.40;;;2.20;;
38037;SDS011;23843;51.320;12.340;2023-06-14T07:45:45;2.38;;;2.20;;
38037;SDS011;23843;51.320;12.340;2023-06-14T07:48:11;1.70;;;1.60;;
38037;SDS011;23843;51.320;12.340;2023-06-14T07:50:37;1.80;;;1.70;;
38037;SDS011;23843;51.320;12.340;2023-06-14T07:53:02;2.00;;;1.90;;
38037;SDS011;23843;51.320;12.340;2023-06-14T07:55:29;2.00;;;1.90;;
38037;SDS011;23843;51.320;12.340;2023-06-14T07:57:54;2.65;;;2.45;;
38037;SDS011;23843;51.320;12.340;2023-06-14T08:00:20;2.30;;;2.20;;
38037;SDS011;23843;51.320;12.340;2023-06-14T08:02:46;3.97;;;2.60;;
38037;SDS011;23843;51.320;12.340;2023-06-14T08:05:11;2.10;;;2.00;;
38037;SDS011;23843;51.320;12.340;2023-06-14T08:07:37;2.47;;;2.28;;
38037;SDS011;23843;51.320;12.340;2023-06-14T08:10:03;2.80;;;2.60;;
38037;SDS011;23843;51.320;12.340;2023-06-14T08:12:30;1.70;;;1.60;;
38037;SDS011;23843;51.320;12.340;2023-06-14T08:14:56;1.98;;;1.88;;
38037;SDS011;23843;51.320;12.340;2023-06-14T08:17:21;2.15;;;1.95;;
38037;SDS011;23843;51.320;12.340;2023-06-14T08:19:47;2.65;;;2.42;;
38037;SDS011;23843;51.320;12.340;2023-06-14T08:22:12;2.53;;;2.22;;
38037;SDS011;23843;51.320;12.340;2023-06-14T08:24:38;2.75;;;2.33;;
38037;SDS011;23843;51.320;12.340;2023-06-14T08:27:03;2.53;;;2.25;;
38037;SDS011;23843;51.320;12.340;2023-06-14T08:29:31;2.03;;;1.92;;
38037;SDS011;23843;51.320;12.340;2023-06-14T08:31:56;2.88;;;2.05;;
38037;SDS011;23843;51.320;12.340;2023-06-14T08:34:22;2.38;;;2.17;;
38037;SDS011;23843;51.320;12.340;2023-06-14T08:36:47;2.88;;;2.00;;
38037;SDS011;23843;51.320;12.340;2023-06-14T08:39:13;2.20;;;2.00;;
38037;SDS011;23843;51.320;12.340;2023-06-14T08:41:38;2.30;;;2.10;;
38037;SDS011;23843;51.320;12.340;2023-06-14T08:44:04;2.38;;;2.17;;
38037;SDS011;23843;51.320;12.340;2023-06-14T08:46:31;2.03;;;1.92;;
38037;SDS011;23843;51.320;12.340;2023-06-14T08:48:57;2.60;;;2.40;;
38037;SDS011;23843;51.320;12.340;2023-06-14T08:51:24;2.00;;;1.80;;
38037;SDS011;23843;51.320;12.340;2023-06-14T08:53:52;2.67;;;1.67;;
38037;SDS011;23843;51.320;12.340;2023-06-14T08:56:18;2.03;;;1.92;;
38037;SDS011;23843;51.320;12.340;2023-06-14T08:58:44;2.15;;;2.05;;
38037;SDS011;23843;51.320;12.340;2023-06-14T09:01:11;2.35;;;2.15;;
38037;SDS011;23843;51.320;12.340;2023-06-14T09:03:38;2.80;;;2.60;;
38037;SDS011;23843;51.320;12.340;2023-06-14T09:06:04;2.35;;;2.20;;
38037;SDS011;23843;51.320;12.340;2023-06-14T09:08:29;2.00;;;1.85;;
38037;SDS011;23843;51.320;12.340;2023-06-14T09:10:55;2.22;;;2.03;;
38037;SDS011;23843;51.320;12.340;2023-06-14T09:13:22;2.83;;;2.30;;
38037;SDS011;23843;51.320;12.340;2023-06-14T09:15:47;3.00;;;1.90;;
38037;SDS011;23843;51.320;12.340;2023-06-14T09:18:13;2.00;;;1.85;;
38037;SDS011;23843;51.320;12.340;2023-06-14T09:20:40;1.80;;;1.70;;
38037;SDS011;23843;51.320;12.340;2023-06-14T09:23:06;1.95;;;1.85;;
38037;SDS011;23843;51.320;12.340;2023-06-14T09:25:31;1.98;;;1.88;;
38037;SDS011;23843;51.320;12.340;2023-06-14T09:27:57;2.80;;;2.60;;
38037;SDS011;23843;51.320;12.340;2023-06-14T09:30:22;2.80;;;2.15;;
38037;SDS011;23843;51.320;12.340;2023-06-14T09:32:48;1.80;;;1.70;;
38037;SDS011;23843;51.320;12.340;2023-06-14T09:35:14;2.00;;;1.90;;
38037;SDS011;23843;51.320;12.340;2023-06-14T09:37:44;2.30;;;2.10;;
38037;SDS011;23843;51.320;12.340;2023-06-14T09:40:10;2.22;;;2.03;;
38037;SDS011;23843;51.320;12.340;2023-06-14T09:42:35;2.30;;;1.90;;
38037;SDS011;23843;51.320;12.340;2023-06-14T09:45:02;2.05;;;1.90;;
38037;SDS011;23843;51.320;12.340;2023-06-14T09:47:28;2.35;;;2.13;;
38037;SDS011;23843;51.320;12.340;2023-06-14T09:49:53;2.17;;;2.03;;
38037;SDS011;23843;51.320;12.340;2023-06-14T09:52:21;2.25;;;2.05;;
38037;SDS011;23843;51.320;12.340;2023-06-14T09:54:48;2.05;;;1.85;;
38037;SDS011;23843;51.320;12.340;2023-06-14T09:57:15;1.60;;;1.50;;
38037;SDS011;23843;51.320;12.340;2023-06-14T09:59:42;2.10;;;1.90;;
38037;SDS011;23843;51.320;12.340;2023-06-14T10:02:10;1.90;;;1.80;;
38037;SDS011;23843;51.320;12.340;2023-06-14T10:04:39;1.70;;;1.60;;
38037;SDS011;23843;51.320;12.340;2023-06-14T10:07:08;2.47;;;1.75;;
38037;SDS011;23843;51.320;12.340;2023-06-14T10:09:35;1.75;;;1.65;;
38037;SDS011;23843;51.320;12.340;2023-06-14T10:12:02;2.00;;;1.85;;
38037;SDS011;23843;51.320;12.340;2023-06-14T10:14:28;3.03;;;1.80;;
38037;SDS011;23843;51.320;12.340;2023-06-14T10:16:55;2.58;;;2.05;;
38037;SDS011;23843;51.320;12.340;2023-06-14T10:19:27;2.08;;;1.80;;
38037;SDS011;23843;51.320;12.340;2023-06-14T10:22:00;1.98;;;1.85;;
38037;SDS011;23843;51.320;12.340;2023-06-14T10:24:29;1.70;;;1.60;;
38037;SDS011;23843;51.320;12.340;2023-06-14T10:26:58;2.05;;;1.75;;
38037;SDS011;23843;51.320;12.340;2023-06-14T10:29:26;2.17;;;1.98;;
38037;SDS011;23843;51.320;12.340;2023-06-14T10:31:56;2.05;;;1.85;;
38037;SDS011;23843;51.320;12.340;2023-06-14T10:34:22;2.40;;;1.70;;
38037;SDS011;23843;51.320;12.340;2023-06-14T10:36:59;2.53;;;1.88;;
38037;SDS011;23843;51.320;12.340;2023-06-14T10:39:26;2.88;;;2.67;;
38037;SDS011;23843;51.320;12.340;2023-06-14T10:41:52;4.07;;;2.30;;
38037;SDS011;23843;51.320;12.340;2023-06-14T10:44:41;2.00;;;1.80;;
38037;SDS011;23843;51.320;12.340;2023-06-14T10:47:09;3.00;;;2.05;;
38037;SDS011;23843;51.320;12.340;2023-06-14T10:49:45;2.47;;;2.28;;
38037;SDS011;23843;51.320;12.340;2023-06-14T10:52:16;2.05;;;1.85;;
38037;SDS011;23843;51.320;12.340;2023-06-14T10:57:30;1.90;;;1.80;;
38037;SDS011;23843;51.320;12.340;2023-06-14T10:59:57;2.75;;;2.03;;
38037;SDS011;23843;51.320;12.340;2023-06-14T11:02:29;2.63;;;1.90;;
38037;SDS011;23843;51.320;12.340;2023-06-14T11:05:14;2.83;;;1.90;;
38037;SDS011;23843;51.320;12.340;2023-06-14T11:07:42;1.70;;;1.60;;
38037;SDS011;23843;51.320;12.340;2023-06-14T11:10:15;1.70;;;1.40;;
38037;SDS011;23843;51.320;12.340;2023-06-14T11:12:51;1.60;;;1.50;;
38037;SDS011;23843;51.320;12.340;2023-06-14T11:15:22;2.38;;;1.42;;
38037;SDS011;23843;51.320;12.340;2023-06-14T11:17:53;2.00;;;1.88;;
38037;SDS011;23843;51.320;12.340;2023-06-14T11:20:18;3.33;;;1.88;;
38037;SDS011;23843;51.320;12.340;2023-06-14T11:22:44;2.67;;;2.10;;
38037;SDS011;23843;51.320;12.340;2023-06-14T11:25:10;2.25;;;2.05;;
38037;SDS011;23843;51.320;12.340;2023-06-14T11:27:41;1.63;;;1.52;;
38037;SDS011;23843;51.320;12.340;2023-06-14T11:30:07;1.48;;;1.38;;
38037;SDS011;23843;51.320;12.340;2023-06-14T11:32:35;1.65;;;1.55;;
38037;SDS011;23843;51.320;12.340;2023-06-14T11:35:00;2.22;;;1.50;;
38037;SDS011;23843;51.320;12.340;2023-06-14T11:37:27;1.63;;;1.52;;
38037;SDS011;23843;51.320;12.340;2023-06-14T11:39:56;1.25;;;1.15;;
38037;SDS011;23843;51.320;12.340;2023-06-14T11:42:21;1.45;;;1.35;;
38037;SDS011;23843;51.320;12.340;2023-06-14T11:44:47;2.00;;;1.80;;
38037;SDS011;23843;51.320;12.340;2023-06-14T11:47:12;1.65;;;1.55;;
38037;SDS011;23843;51.320;12.340;2023-06-14T11:49:39;3.88;;;1.70;;
38037;SDS011;23843;51.320;12.340;2023-06-14T11:52:05;4.93;;;2.30;;
38037;SDS011;23843;51.320;12.340;2023-06-14T11:54:31;4.25;;;2.10;;
38037;SDS011;23843;51.320;12.340;2023-06-14T11:56:57;3.63;;;1.70;;
38037;SDS011;23843;51.320;12.340;2023-06-14T11:59:23;1.60;;;1.50;;
38037;SDS011;23843;51.320;12.340;2023-06-14T12:01:49;1.27;;;1.17;;
38037;SDS011;23843;51.320;12.340;2023-06-14T12:04:22;1.95;;;1.60;;
38037;SDS011;23843;51.320;12.340;2023-06-14T12:06:51;1.50;;;1.40;;
38037;SDS011;23843;51.320;12.340;2023-06-14T12:09:16;1.77;;;1.67;;
38037;SDS011;23843;51.320;12.340;2023-06-14T12:11:42;1.20;;;1.10;;
38037;SDS011;23843;51.320;12.340;2023-06-14T12:14:08;1.52;;;1.42;;
38037;SDS011;23843;51.320;12.340;2023-06-14T12:16:37;1.27;;;1.17;;
38037;SDS011;23843;51.320;12.340;2023-06-14T12:19:12;1.45;;;1.35;;
38037;SDS011;23843;51.320;12.340;2023-06-14T12:21:38;2.25;;;1.90;;
38037;SDS011;23843;51.320;12.340;2023-06-14T12:24:05;2.88;;;1.70;;
38037;SDS011;23843;51.320;12.340;2023-06-14T12:26:31;1.80;;;1.70;;
38037;SDS011;23843;51.320;12.340;2023-06-14T12:28:57;1.70;;;1.60;;
38037;SDS011;23843;51.320;12.340;2023-06-14T12:31:25;2.15;;;1.95;;
38037;SDS011;23843;51.320;12.340;2023-06-14T12:33:51;1.58;;;1.48;;
38037;SDS011;23843;51.320;12.340;2023-06-14T12:36:16;2.08;;;1.17;;
38037;SDS011;23843;51.320;12.340;2023-06-14T12:38:42;1.48;;;1.38;;
38037;SDS011;23843;51.320;12.340;2023-06-14T12:41:09;1.33;;;1.23;;
38037;SDS011;23843;51.320;12.340;2023-06-14T12:43:34;2.28;;;2.10;;
38037;SDS011;23843;51.320;12.340;2023-06-14T12:46:02;1.50;;;1.40;;
38037;SDS011;23843;51.320;12.340;2023-06-14T12:48:27;1.70;;;1.60;;
38037;SDS011;23843;51.320;12.340;2023-06-14T12:50:53;2.15;;;1.95;;
38037;SDS011;23843;51.320;12.340;2023-06-14T12:53:18;2.00;;;1.80;;
38037;SDS011;23843;51.320;12.340;2023-06-14T12:55:44;3.22;;;1.90;;
38037;SDS011;23843;51.320;12.340;2023-06-14T12:58:13;2.20;;;2.00;;
38037;SDS011;23843;51.320;12.340;2023-06-14T13:00:39;4.65;;;2.20;;
38037;SDS011;23843;51.320;12.340;2023-06-14T13:03:04;2.53;;;2.20;;
38037;SDS011;23843;51.320;12.340;2023-06-14T13:05:30;2.40;;;2.20;;
38037;SDS011;23843;51.320;12.340;2023-06-14T13:07:55;1.85;;;1.60;;
38037;SDS011;23843;51.320;12.340;2023-06-14T13:10:20;2.10;;;1.60;;
38037;SDS011;23843;51.320;12.340;2023-06-14T13:12:46;3.72;;;2.20;;
38037;SDS011;23843;51.320;12.340;2023-06-14T13:15:13;2.17;;;1.98;;
38037;SDS011;23843;51.320;12.340;2023-06-14T13:17:38;2.20;;;2.00;;
38037;SDS011;23843;51.320;12.340;2023-06-14T13:20:04;1.85;;;1.75;;
38037;SDS011;23843;51.320;12.340;2023-06-14T13:22:30;2.80;;;1.48;;
38037;SDS011;23843;51.320;12.340;2023-06-14T13:24:55;3.22;;;2.00;;
38037;SDS011;23843;51.320;12.340;2023-06-14T13:27:21;2.92;;;2.17;;
38037;SDS011;23843;51.320;12.340;2023-06-14T13:29:46;2.20;;;2.00;;
38037;SDS011;23843;51.320;12.340;2023-06-14T13:32:13;2.63;;;2.35;;
38037;SDS011;23843;51.320;12.340;2023-06-14T13:34:39;3.58;;;2.00;;
38037;SDS011;23843;51.320;12.340;2023-06-14T13:37:04;2.25;;;2.10;;
38037;SDS011;23843;51.320;12.340;2023-06-14T13:39:30;1.90;;;1.70;;
38037;SDS011;23843;51.320;12.340;2023-06-14T13:41:55;2.00;;;1.80;;
38037;SDS011;23843;51.320;12.340;2023-06-14T13:44:23;3.15;;;2.10;;
38037;SDS011;23843;51.320;12.340;2023-06-14T13:46:49;1.50;;;1.40;;
38037;SDS011;23843;51.320;12.340;2023-06-14T13:49:16;2.78;;;1.40;;
38037;SDS011;23843;51.320;12.340;2023-06-14T13:51:42;1.88;;;1.55;;
38037;SDS011;23843;51.320;12.340;2023-06-14T13:54:07;2.22;;;1.95;;
38037;SDS011;23843;51.320;12.340;2023-06-14T13:56:35;2.08;;;1.70;;
38037;SDS011;23843;51.320;12.340;2023-06-14T13:59:01;2.80;;;2.33;;
38037;SDS011;23843;51.320;12.340;2023-06-14T14:01:27;2.15;;;1.92;;
38037;SDS011;23843;51.320;12.340;2023-06-14T14:03:52;2.00;;;1.80;;
38037;SDS011;23843;51.320;12.340;2023-06-14T14:06:19;2.40;;;2.10;;
38037;SDS011;23843;51.320;12.340;2023-06-14T14:08:44;2.35;;;1.88;;
38037;SDS011;23843;51.320;12.340;2023-06-14T14:11:13;1.80;;;1.70;;
38037;SDS011;23843;51.320;12.340;2023-06-14T14:13:38;3.80;;;2.78;;
38037;SDS011;23843;51.320;12.340;2023-06-14T14:18:57;2.50;;;2.30;;
38037;SDS011;23843;51.320;12.340;2023-06-14T14:21:27;3.90;;;2.40;;
38037;SDS011;23843;51.320;12.340;2023-06-14T14:23:52;2.25;;;2.05;;
38037;SDS011;23843;51.320;12.340;2023-06-14T14:26:18;1.98;;;1.77;;
38037;SDS011;23843;51.320;12.340;2023-06-14T14:28:43;2.60;;;2.33;;
38037;SDS011;23843;51.320;12.340;2023-06-14T14:31:09;2.13;;;1.92;;
38037;SDS011;23843;51.320;12.340;2023-06-14T14:33:34;1.75;;;1.63;;